createdAt,value
2022-12-11T00:00:45.295Z,28.40
2022-12-11T00:01:45.368Z,28.00
2022-12-11T00:02:45.284Z,27.70
2022-12-11T00:03:45.251Z,26.80
2022-12-11T00:04:45.236Z,29.00
2022-12-11T00:05:45.218Z,28.10
2022-12-11T00:06:45.206Z,28.00
2022-12-11T00:07:45.226Z,27.70
2022-12-11T00:08:45.178Z,27.80
2022-12-11T00:09:45.160Z,25.60
2022-12-11T00:10:45.145Z,27.60
2022-12-11T00:11:45.220Z,28.80
2022-12-11T00:12:45.116Z,29.20
2022-12-11T00:13:45.100Z,27.00
2022-12-11T00:14:45.082Z,28.80
2022-12-11T00:15:45.072Z,29.80
2022-12-11T00:16:45.176Z,29.20
2022-12-11T00:17:45.037Z,29.20
2022-12-11T00:18:45.026Z,27.60
2022-12-11T00:19:45.012Z,30.20
2022-12-11T00:20:44.989Z,29.10
2022-12-11T00:21:44.972Z,31.30
2022-12-11T00:22:44.965Z,30.10
2022-12-11T00:23:44.946Z,28.90
2022-12-11T00:24:44.930Z,28.30
2022-12-11T00:25:44.912Z,30.30
2022-12-11T00:26:45.001Z,30.30
2022-12-11T00:27:44.883Z,29.90
2022-12-11T00:28:44.870Z,30.20
2022-12-11T00:29:44.852Z,31.00
2022-12-11T00:30:44.835Z,30.70
2022-12-11T00:31:44.989Z,30.00
2022-12-11T00:32:44.808Z,30.20
2022-12-11T00:33:44.792Z,30.00
2022-12-11T00:34:44.776Z,29.70
2022-12-11T00:35:44.767Z,30.40
2022-12-11T00:36:44.844Z,31.20
2022-12-11T00:37:44.730Z,31.50
2022-12-11T00:38:44.717Z,33.00
2022-12-11T00:39:44.700Z,30.00
2022-12-11T00:40:44.683Z,32.40
2022-12-11T00:41:44.748Z,31.40
2022-12-11T00:42:44.654Z,32.40
2022-12-11T00:43:44.642Z,30.50
2022-12-11T00:44:44.621Z,33.40
2022-12-11T00:45:44.635Z,31.90
2022-12-11T00:46:44.685Z,33.00
2022-12-11T00:47:44.583Z,32.10
2022-12-11T00:48:44.568Z,32.20
2022-12-11T00:49:49.534Z,31.80
2022-12-11T00:50:44.536Z,32.30
2022-12-11T00:51:44.521Z,33.50
2022-12-11T00:52:44.502Z,30.60
2022-12-11T00:53:44.487Z,31.20
2022-12-11T00:54:44.474Z,30.70
2022-12-11T00:55:44.464Z,31.00
2022-12-11T00:56:44.547Z,31.90
2022-12-11T00:57:44.430Z,30.30
2022-12-11T00:58:44.411Z,32.60
2022-12-11T00:59:44.397Z,32.20
2022-12-11T01:00:44.378Z,31.50
2022-12-11T01:01:44.471Z,32.10
2022-12-11T01:02:44.386Z,32.00
2022-12-11T01:03:44.344Z,29.40
2022-12-11T01:04:44.321Z,31.80
2022-12-11T01:05:44.306Z,33.50
2022-12-11T01:06:44.290Z,30.60
2022-12-11T01:07:44.308Z,32.30
2022-12-11T01:08:44.262Z,31.30
2022-12-11T01:09:44.243Z,33.00
2022-12-11T01:10:44.265Z,33.00
2022-12-11T01:11:44.213Z,33.70
2022-12-11T01:12:44.197Z,31.60
2022-12-11T01:13:44.183Z,32.40
2022-12-11T01:14:44.173Z,32.40
2022-12-11T01:15:44.154Z,33.00
2022-12-11T01:16:44.161Z,32.60
2022-12-11T01:17:44.121Z,33.10
2022-12-11T01:18:44.114Z,32.70
2022-12-11T01:19:44.093Z,35.20
2022-12-11T01:20:44.083Z,34.20
2022-12-11T01:21:44.217Z,34.80
2022-12-11T01:22:44.045Z,34.20
2022-12-11T01:23:44.031Z,34.50
2022-12-11T01:24:44.014Z,34.80
2022-12-11T01:25:43.999Z,34.10
2022-12-11T01:26:43.983Z,34.80
2022-12-11T01:27:43.968Z,33.10
2022-12-11T01:28:43.955Z,36.00
2022-12-11T01:29:43.936Z,35.80
2022-12-11T01:30:44.024Z,34.50
2022-12-11T01:31:43.908Z,34.70
2022-12-11T01:32:43.891Z,37.30
2022-12-11T01:33:43.881Z,34.40
2022-12-11T01:34:43.864Z,33.10
2022-12-11T01:35:43.852Z,33.80
2022-12-11T01:36:43.830Z,34.40
2022-12-11T01:37:43.821Z,32.90
2022-12-11T01:38:43.799Z,36.00
2022-12-11T01:39:43.787Z,35.60
2022-12-11T01:40:43.769Z,34.30
2022-12-11T01:41:43.758Z,35.10
2022-12-11T01:42:43.740Z,35.30
2022-12-11T01:43:43.724Z,36.70
2022-12-11T01:44:43.713Z,36.30
2022-12-11T01:45:43.720Z,38.90
2022-12-11T01:46:43.677Z,37.30
2022-12-11T01:47:43.665Z,37.80
2022-12-11T01:48:43.651Z,34.30
2022-12-11T01:49:43.633Z,36.80
2022-12-11T01:50:43.615Z,35.20
2022-12-11T01:51:43.601Z,40.90
2022-12-11T01:52:43.585Z,37.20
2022-12-11T01:53:43.577Z,35.60
2022-12-11T01:54:43.556Z,38.30
2022-12-11T01:55:43.537Z,38.30
2022-12-11T01:56:43.526Z,37.40
2022-12-11T01:57:43.508Z,37.00
2022-12-11T01:58:43.492Z,36.90
2022-12-11T01:59:43.479Z,37.60
2022-12-11T02:00:43.462Z,37.10
2022-12-11T02:01:43.527Z,35.40
2022-12-11T02:02:43.488Z,38.60
2022-12-11T02:03:43.420Z,39.60
2022-12-11T02:04:43.403Z,38.40
2022-12-11T02:05:43.391Z,37.60
2022-12-11T02:06:43.371Z,37.40
2022-12-11T02:07:43.381Z,37.20
2022-12-11T02:08:43.346Z,39.80
2022-12-11T02:09:43.325Z,37.40
2022-12-11T02:10:43.308Z,40.30
2022-12-11T02:11:43.298Z,39.40
2022-12-11T02:12:43.279Z,37.10
2022-12-11T02:13:43.263Z,36.20
2022-12-11T02:14:43.250Z,38.30
2022-12-11T02:15:43.232Z,38.00
2022-12-11T02:16:43.256Z,41.30
2022-12-11T02:17:43.207Z,37.20
2022-12-11T02:18:43.186Z,36.90
2022-12-11T02:19:43.175Z,37.00
2022-12-11T02:20:43.154Z,36.50
2022-12-11T02:21:43.139Z,37.90
2022-12-11T02:22:43.128Z,38.40
2022-12-11T02:23:43.108Z,39.70
2022-12-11T02:24:43.095Z,39.90
2022-12-11T02:25:43.076Z,35.80
2022-12-11T02:26:43.064Z,36.10
2022-12-11T02:27:43.048Z,39.30
2022-12-11T02:28:43.039Z,36.90
2022-12-11T02:29:43.018Z,37.20
2022-12-11T02:30:43.002Z,37.30
2022-12-11T02:31:43.014Z,39.30
2022-12-11T02:32:42.974Z,39.00
2022-12-11T02:33:42.961Z,38.80
2022-12-11T02:34:42.942Z,39.20
2022-12-11T02:35:42.925Z,39.50
2022-12-11T02:36:42.910Z,35.80
2022-12-11T02:37:42.897Z,39.20
2022-12-11T02:38:42.879Z,38.40
2022-12-11T02:39:42.866Z,37.70
2022-12-11T02:40:42.851Z,36.60
2022-12-11T02:41:42.836Z,38.60
2022-12-11T02:42:42.819Z,37.40
2022-12-11T02:43:42.804Z,36.20
2022-12-11T02:44:42.789Z,36.00
2022-12-11T02:45:42.844Z,36.40
2022-12-11T02:46:42.757Z,38.30
2022-12-11T02:47:42.744Z,38.00
2022-12-11T02:48:42.740Z,39.80
2022-12-11T02:49:42.716Z,38.00
2022-12-11T02:50:42.700Z,38.20
2022-12-11T02:51:42.685Z,36.80
2022-12-11T02:52:42.669Z,37.80
2022-12-11T02:53:42.649Z,37.90
2022-12-11T02:54:42.637Z,37.10
2022-12-11T02:55:42.623Z,37.50
2022-12-11T02:56:42.606Z,38.20
2022-12-11T02:57:42.591Z,40.40
2022-12-11T02:58:42.577Z,37.30
2022-12-11T02:59:42.563Z,36.90
2022-12-11T03:00:42.550Z,37.80
2022-12-11T03:01:42.580Z,39.30
2022-12-11T03:02:42.569Z,39.80
2022-12-11T03:03:42.502Z,37.80
2022-12-11T03:04:42.485Z,37.30
2022-12-11T03:05:42.479Z,36.60
2022-12-11T03:06:42.465Z,40.90
2022-12-11T03:07:42.440Z,38.50
2022-12-11T03:08:42.433Z,38.40
2022-12-11T03:09:42.407Z,38.90
2022-12-11T03:10:42.393Z,40.50
2022-12-11T03:11:42.380Z,38.50
2022-12-11T03:12:42.365Z,39.90
2022-12-11T03:13:42.346Z,38.90
2022-12-11T03:14:42.337Z,38.00
2022-12-11T03:15:42.320Z,39.10
2022-12-11T03:16:42.366Z,38.90
2022-12-11T03:17:42.290Z,40.60
2022-12-11T03:18:42.274Z,38.50
2022-12-11T03:19:42.256Z,40.30
2022-12-11T03:20:42.241Z,41.70
2022-12-11T03:21:42.228Z,37.70
2022-12-11T03:22:42.215Z,37.90
2022-12-11T03:23:42.198Z,37.50
2022-12-11T03:24:42.180Z,38.60
2022-12-11T03:25:42.165Z,40.80
2022-12-11T03:26:42.148Z,39.90
2022-12-11T03:27:42.136Z,39.60
2022-12-11T03:28:42.119Z,40.30
2022-12-11T03:29:42.106Z,38.70
2022-12-11T03:30:42.166Z,40.90
2022-12-11T03:31:42.072Z,40.30
2022-12-11T03:32:42.056Z,40.70
2022-12-11T03:33:42.040Z,40.80
2022-12-11T03:34:42.027Z,41.50
2022-12-11T03:35:42.012Z,42.50
2022-12-11T03:36:41.999Z,41.20
2022-12-11T03:37:41.982Z,44.00
2022-12-11T03:38:41.964Z,40.40
2022-12-11T03:39:41.952Z,40.40
2022-12-11T03:40:41.937Z,40.00
2022-12-11T03:41:41.922Z,39.00
2022-12-11T03:42:41.904Z,38.60
2022-12-11T03:43:41.890Z,40.10
2022-12-11T03:44:41.871Z,37.30
2022-12-11T03:45:41.858Z,41.20
2022-12-11T03:46:41.842Z,41.70
2022-12-11T03:47:41.830Z,41.90
2022-12-11T03:48:41.828Z,41.00
2022-12-11T03:49:41.804Z,38.40
2022-12-11T03:50:41.779Z,40.70
2022-12-11T03:51:41.764Z,38.60
2022-12-11T03:52:45.791Z,39.40
2022-12-11T03:53:41.734Z,43.40
2022-12-11T03:54:41.719Z,40.40
2022-12-11T03:55:41.706Z,38.50
2022-12-11T03:56:41.691Z,38.50
2022-12-11T03:57:41.676Z,39.30
2022-12-11T03:58:41.661Z,41.10
2022-12-11T03:59:41.644Z,39.60
2022-12-11T04:00:41.629Z,41.00
2022-12-11T04:01:41.645Z,41.20
2022-12-11T04:02:41.596Z,41.40
2022-12-11T04:03:41.583Z,40.50
2022-12-11T04:04:41.568Z,39.50
2022-12-11T04:05:41.554Z,40.00
2022-12-11T04:06:41.554Z,40.10
2022-12-11T04:07:41.521Z,41.00
2022-12-11T04:08:41.506Z,40.00
2022-12-11T04:09:41.492Z,41.30
2022-12-11T04:10:41.471Z,42.30
2022-12-11T04:11:41.465Z,39.20
2022-12-11T04:12:41.449Z,41.50
2022-12-11T04:13:41.440Z,43.40
2022-12-11T04:14:41.421Z,41.90
2022-12-11T04:15:41.455Z,42.20
2022-12-11T04:16:41.383Z,40.50
2022-12-11T04:17:41.369Z,42.50
2022-12-11T04:18:41.353Z,42.30
2022-12-11T04:19:41.334Z,42.20
2022-12-11T04:20:41.321Z,42.20
2022-12-11T04:21:41.305Z,43.50
2022-12-11T04:22:41.290Z,43.20
2022-12-11T04:23:41.295Z,39.70
2022-12-11T04:24:41.265Z,43.50
2022-12-11T04:25:41.240Z,44.90
2022-12-11T04:26:41.228Z,41.20
2022-12-11T04:27:41.213Z,42.60
2022-12-11T04:28:41.195Z,43.20
2022-12-11T04:29:41.181Z,44.20
2022-12-11T04:30:41.248Z,39.80
2022-12-11T04:31:41.152Z,43.20
2022-12-11T04:32:41.138Z,41.00
2022-12-11T04:33:41.120Z,40.70
2022-12-11T04:34:41.102Z,40.20
2022-12-11T04:35:41.089Z,40.00
2022-12-11T04:36:41.072Z,39.80
2022-12-11T04:37:41.061Z,40.70
2022-12-11T04:38:41.041Z,41.90
2022-12-11T04:39:41.025Z,38.80
2022-12-11T04:40:41.012Z,42.30
2022-12-11T04:41:40.999Z,40.70
2022-12-11T04:42:40.977Z,42.40
2022-12-11T04:43:40.961Z,41.10
2022-12-11T04:44:40.950Z,39.80
2022-12-11T04:45:40.934Z,42.90
2022-12-11T04:46:40.947Z,42.70
2022-12-11T04:47:40.899Z,41.80
2022-12-11T04:48:40.886Z,42.00
2022-12-11T04:49:40.871Z,42.90
2022-12-11T04:50:40.857Z,42.00
2022-12-11T04:51:40.840Z,41.50
2022-12-11T04:52:40.825Z,42.50
2022-12-11T04:53:40.807Z,43.40
2022-12-11T04:54:40.792Z,43.90
2022-12-11T04:55:40.777Z,43.70
2022-12-11T04:56:40.760Z,43.80
2022-12-11T04:57:40.748Z,43.10
2022-12-11T04:58:40.735Z,41.20
2022-12-11T04:59:40.714Z,38.90
2022-12-11T05:00:40.697Z,40.10
2022-12-11T05:01:40.737Z,40.30
2022-12-11T05:02:40.737Z,44.40
2022-12-11T05:03:40.654Z,40.70
2022-12-11T05:04:40.638Z,40.90
2022-12-11T05:05:40.619Z,39.00
2022-12-11T05:06:40.609Z,40.60
2022-12-11T05:07:40.586Z,40.00
2022-12-11T05:08:40.575Z,42.60
2022-12-11T05:09:40.557Z,38.90
2022-12-11T05:10:41.805Z,40.50
2022-12-11T05:11:40.526Z,41.60
2022-12-11T05:12:40.509Z,40.20
2022-12-11T05:13:40.493Z,39.80
2022-12-11T05:14:40.479Z,40.80
2022-12-11T05:15:40.530Z,38.40
2022-12-11T05:16:40.448Z,40.60
2022-12-11T05:17:40.429Z,41.30
2022-12-11T05:18:40.416Z,39.90
2022-12-11T05:19:40.396Z,42.10
2022-12-11T05:20:40.387Z,42.30
2022-12-11T05:21:40.372Z,38.80
2022-12-11T05:22:40.355Z,37.00
2022-12-11T05:23:40.337Z,39.40
2022-12-11T05:24:40.323Z,40.20
2022-12-11T05:25:40.308Z,37.50
2022-12-11T05:26:40.292Z,40.90
2022-12-11T05:27:40.278Z,37.80
2022-12-11T05:28:40.263Z,42.00
2022-12-11T05:29:40.244Z,42.30
2022-12-11T05:30:40.229Z,40.00
2022-12-11T05:31:40.277Z,38.50
2022-12-11T05:32:40.198Z,40.70
2022-12-11T05:33:40.182Z,40.40
2022-12-11T05:34:40.171Z,36.70
2022-12-11T05:35:40.148Z,38.80
2022-12-11T05:36:40.134Z,38.70
2022-12-11T05:37:40.117Z,41.50
2022-12-11T05:38:40.103Z,37.10
2022-12-11T05:39:40.088Z,36.10
2022-12-11T05:40:40.077Z,38.30
2022-12-11T05:41:40.052Z,40.70
2022-12-11T05:42:40.040Z,40.50
2022-12-11T05:43:40.029Z,37.10
2022-12-11T05:44:40.015Z,38.30
2022-12-11T05:45:39.996Z,35.40
2022-12-11T05:46:40.022Z,36.80
2022-12-11T05:47:39.966Z,37.00
2022-12-11T05:48:39.948Z,35.30
2022-12-11T05:49:39.928Z,33.30
2022-12-11T05:50:39.913Z,34.30
2022-12-11T05:51:39.899Z,34.80
2022-12-11T05:52:39.880Z,33.60
2022-12-11T05:53:39.870Z,31.90
2022-12-11T05:54:39.853Z,35.60
2022-12-11T05:55:39.836Z,32.60
2022-12-11T05:56:39.817Z,35.00
2022-12-11T05:57:39.803Z,34.60
2022-12-11T05:58:39.790Z,31.00
2022-12-11T05:59:39.773Z,29.00
2022-12-11T06:00:39.754Z,27.60
2022-12-11T06:01:39.814Z,29.90
2022-12-11T06:02:39.835Z,28.50
2022-12-11T06:03:39.714Z,28.40
2022-12-11T06:04:39.694Z,27.30
2022-12-11T06:05:39.678Z,27.80
2022-12-11T06:06:39.662Z,25.90
2022-12-11T06:07:39.645Z,26.50
2022-12-11T06:08:39.637Z,27.80
2022-12-11T06:09:39.617Z,25.10
2022-12-11T06:10:39.603Z,26.70
2022-12-11T06:11:39.580Z,28.20
2022-12-11T06:12:39.569Z,27.10
2022-12-11T06:13:39.549Z,25.10
2022-12-11T06:14:39.538Z,25.40
2022-12-11T06:15:39.520Z,27.20
2022-12-11T06:16:39.656Z,28.40
2022-12-11T06:17:39.489Z,25.10
2022-12-11T06:18:39.474Z,25.30
2022-12-11T06:19:39.460Z,23.50
2022-12-11T06:20:39.441Z,21.60
2022-12-11T06:21:39.425Z,24.70
2022-12-11T06:22:39.409Z,23.90
2022-12-11T06:23:39.393Z,24.20
2022-12-11T06:24:39.376Z,23.30
2022-12-11T06:25:39.364Z,23.50
2022-12-11T06:26:39.366Z,23.60
2022-12-11T06:27:39.333Z,22.60
2022-12-11T06:28:39.313Z,23.30
2022-12-11T06:29:39.299Z,24.80
2022-12-11T06:30:39.706Z,21.20
2022-12-11T06:31:39.373Z,21.10
2022-12-11T06:32:39.249Z,21.60
2022-12-11T06:33:39.236Z,21.70
2022-12-11T06:34:39.218Z,22.00
2022-12-11T06:35:42.232Z,20.90
2022-12-11T06:36:39.187Z,22.70
2022-12-11T06:37:39.173Z,21.50
2022-12-11T06:38:39.157Z,19.70
2022-12-11T06:39:39.141Z,21.80
2022-12-11T06:40:39.129Z,19.30
2022-12-11T06:41:39.112Z,20.10
2022-12-11T06:42:39.092Z,20.70
2022-12-11T06:43:39.075Z,21.10
2022-12-11T06:44:39.069Z,22.10
2022-12-11T06:45:39.099Z,19.70
2022-12-11T06:46:39.030Z,19.10
2022-12-11T06:47:39.022Z,19.00
2022-12-11T06:48:38.997Z,19.30
2022-12-11T06:49:38.984Z,18.30
2022-12-11T06:50:38.968Z,20.80
2022-12-11T06:51:38.951Z,18.00
2022-12-11T06:52:38.932Z,19.50
2022-12-11T06:53:38.918Z,19.80
2022-12-11T06:54:38.901Z,17.60
2022-12-11T06:55:38.886Z,18.30
2022-12-11T06:56:38.867Z,17.50
2022-12-11T06:57:38.856Z,17.90
2022-12-11T06:58:38.836Z,15.90
2022-12-11T06:59:38.823Z,18.70
2022-12-11T07:00:38.830Z,19.90
2022-12-11T07:01:38.794Z,17.40
2022-12-11T07:02:38.811Z,18.00
2022-12-11T07:03:38.762Z,19.40
2022-12-11T07:04:38.744Z,17.70
2022-12-11T07:05:38.729Z,20.50
2022-12-11T07:06:38.714Z,19.30
2022-12-11T07:07:38.710Z,18.90
2022-12-11T07:08:38.677Z,18.20
2022-12-11T07:09:38.665Z,19.90
2022-12-11T07:10:38.643Z,19.20
2022-12-11T07:11:38.632Z,19.40
2022-12-11T07:12:38.611Z,18.60
2022-12-11T07:13:38.596Z,18.60
2022-12-11T07:14:38.587Z,19.10
2022-12-11T07:15:40.481Z,19.20
2022-12-11T07:16:38.559Z,18.30
2022-12-11T07:17:38.535Z,18.90
2022-12-11T07:18:38.520Z,18.20
2022-12-11T07:19:38.503Z,17.90
2022-12-11T07:20:38.484Z,18.30
2022-12-11T07:21:38.468Z,18.90
2022-12-11T07:22:44.631Z,19.50
2022-12-11T07:23:38.439Z,18.90
2022-12-11T07:24:38.423Z,17.70
2022-12-11T07:25:38.409Z,20.40
2022-12-11T07:26:38.390Z,19.30
2022-12-11T07:27:38.374Z,21.00
2022-12-11T07:28:38.357Z,21.80
2022-12-11T07:29:38.342Z,22.70
2022-12-11T07:30:38.327Z,20.10
2022-12-11T07:31:38.365Z,21.10
2022-12-11T07:32:38.348Z,20.50
2022-12-11T07:33:38.283Z,21.20
2022-12-11T07:34:38.267Z,21.50
2022-12-11T07:35:38.242Z,20.00
2022-12-11T07:36:38.233Z,19.70
2022-12-11T07:37:38.310Z,19.70
2022-12-11T07:38:38.196Z,20.70
2022-12-11T07:39:38.186Z,22.10
2022-12-11T07:40:38.164Z,20.70
2022-12-11T07:41:38.153Z,20.40
2022-12-11T07:42:42.807Z,22.60
2022-12-11T07:43:38.123Z,21.30
2022-12-11T07:44:38.103Z,21.50
2022-12-11T07:45:38.154Z,22.00
2022-12-11T07:46:38.071Z,22.00
2022-12-11T07:47:38.055Z,20.90
2022-12-11T07:48:38.045Z,20.80
2022-12-11T07:49:38.024Z,20.80
2022-12-11T07:50:39.884Z,20.80
2022-12-11T07:51:37.990Z,19.90
2022-12-11T07:52:37.978Z,24.40
2022-12-11T07:53:37.969Z,24.40
2022-12-11T07:54:37.946Z,20.20
2022-12-11T07:55:37.929Z,20.30
2022-12-11T07:56:37.911Z,21.50
2022-12-11T07:57:37.907Z,23.50
2022-12-11T07:58:37.884Z,20.90
2022-12-11T07:59:37.878Z,21.40
2022-12-11T08:00:37.857Z,20.70
2022-12-11T08:01:37.916Z,21.10
2022-12-11T08:02:37.895Z,21.20
2022-12-11T08:03:37.805Z,21.60
2022-12-11T08:04:37.789Z,21.90
2022-12-11T08:05:37.773Z,23.10
2022-12-11T08:06:37.753Z,21.50
2022-12-11T08:07:37.743Z,22.00
2022-12-11T08:08:37.731Z,21.10
2022-12-11T08:09:37.710Z,23.10
2022-12-11T08:10:37.691Z,20.10
2022-12-11T08:11:37.678Z,20.60
2022-12-11T08:12:37.667Z,20.10
2022-12-11T08:13:37.645Z,20.90
2022-12-11T08:14:37.632Z,21.80
2022-12-11T08:15:37.614Z,20.50
2022-12-11T08:16:37.677Z,21.40
2022-12-11T08:17:40.133Z,20.50
2022-12-11T08:18:37.563Z,22.70
2022-12-11T08:19:37.551Z,23.00
2022-12-11T08:20:37.538Z,21.80
2022-12-11T08:21:37.518Z,21.90
2022-12-11T08:22:37.502Z,21.60
2022-12-11T08:23:37.494Z,21.40
2022-12-11T08:24:37.472Z,20.70
2022-12-11T08:25:37.453Z,22.40
2022-12-11T08:26:37.440Z,23.40
2022-12-11T08:27:37.422Z,23.10
2022-12-11T08:28:37.405Z,20.70
2022-12-11T08:29:37.390Z,21.00
2022-12-11T08:30:37.408Z,21.10
2022-12-11T08:31:37.360Z,22.10
2022-12-11T08:32:37.342Z,20.50
2022-12-11T08:33:37.328Z,22.30
2022-12-11T08:34:37.312Z,22.70
2022-12-11T08:35:37.295Z,22.70
2022-12-11T08:36:37.280Z,22.30
2022-12-11T08:37:37.265Z,20.80
2022-12-11T08:38:37.265Z,22.10
2022-12-11T08:39:37.240Z,22.10
2022-12-11T08:40:37.223Z,21.80
2022-12-11T08:41:37.216Z,22.50
2022-12-11T08:42:37.183Z,22.90
2022-12-11T08:43:37.166Z,20.60
2022-12-11T08:44:37.151Z,21.80
2022-12-11T08:45:37.152Z,20.80
2022-12-11T08:46:37.164Z,21.10
2022-12-11T08:47:37.105Z,21.50
2022-12-11T08:48:37.092Z,20.30
2022-12-11T08:49:37.077Z,22.10
2022-12-11T08:50:37.063Z,21.10
2022-12-11T08:51:37.056Z,21.20
2022-12-11T08:52:37.027Z,20.20
2022-12-11T08:53:37.012Z,20.30
2022-12-11T08:54:36.995Z,24.60
2022-12-11T08:55:36.979Z,21.30
2022-12-11T08:56:36.962Z,20.40
2022-12-11T08:57:36.948Z,21.60
2022-12-11T08:58:36.931Z,21.40
2022-12-11T08:59:36.914Z,20.50
2022-12-11T09:00:36.899Z,19.80
2022-12-11T09:01:36.950Z,22.60
2022-12-11T09:02:36.976Z,22.80
2022-12-11T09:03:36.853Z,19.50
2022-12-11T09:04:36.841Z,21.10
2022-12-11T09:05:36.822Z,20.60
2022-12-11T09:06:36.806Z,22.30
2022-12-11T09:07:36.794Z,21.60
2022-12-11T09:08:36.776Z,19.60
2022-12-11T09:09:36.760Z,19.90
2022-12-11T09:10:36.746Z,21.40
2022-12-11T09:11:36.725Z,23.00
2022-12-11T09:12:36.718Z,19.50
2022-12-11T09:13:36.694Z,21.50
2022-12-11T09:14:36.682Z,21.20
2022-12-11T09:15:36.721Z,21.60
2022-12-11T09:16:36.648Z,20.80
2022-12-11T09:17:36.632Z,21.60
2022-12-11T09:18:36.617Z,19.80
2022-12-11T09:19:36.610Z,20.80
2022-12-11T09:20:36.588Z,21.90
2022-12-11T09:21:36.573Z,23.20
2022-12-11T09:22:36.556Z,25.50
2022-12-11T09:23:36.539Z,25.90
2022-12-11T09:24:36.521Z,22.10
2022-12-11T09:25:36.508Z,23.80
2022-12-11T09:26:36.491Z,22.70
2022-12-11T09:27:36.476Z,21.70
2022-12-11T09:28:37.426Z,22.20
2022-12-11T09:29:36.450Z,22.50
2022-12-11T09:30:36.478Z,19.90
2022-12-11T09:31:36.422Z,22.10
2022-12-11T09:32:36.403Z,21.80
2022-12-11T09:33:36.397Z,20.50
2022-12-11T09:34:36.373Z,23.40
2022-12-11T09:35:36.357Z,20.60
2022-12-11T09:36:36.336Z,21.90
2022-12-11T09:37:36.324Z,20.90
2022-12-11T09:38:36.319Z,20.30
2022-12-11T09:39:36.293Z,19.10
2022-12-11T09:40:36.277Z,21.40
2022-12-11T09:41:36.257Z,20.80
2022-12-11T09:42:36.251Z,21.30
2022-12-11T09:43:36.232Z,22.40
2022-12-11T09:44:36.222Z,21.50
2022-12-11T09:45:36.194Z,21.70
2022-12-11T09:46:36.224Z,22.40
2022-12-11T09:47:36.163Z,22.30
2022-12-11T09:48:36.149Z,22.40
2022-12-11T09:49:36.134Z,21.70
2022-12-11T09:50:36.116Z,21.60
2022-12-11T09:51:36.177Z,23.00
2022-12-11T09:52:36.083Z,24.20
2022-12-11T09:53:36.073Z,24.50
2022-12-11T09:54:36.057Z,23.70
2022-12-11T09:55:36.040Z,26.00
2022-12-11T09:56:36.022Z,24.30
2022-12-11T09:57:36.007Z,22.60
2022-12-11T09:58:35.990Z,22.60
2022-12-11T09:59:36.006Z,28.90
2022-12-11T10:00:35.963Z,28.90
2022-12-11T10:01:36.021Z,24.40
2022-12-11T10:02:36.000Z,22.00
2022-12-11T10:03:35.929Z,21.90
2022-12-11T10:04:35.899Z,24.00
2022-12-11T10:05:35.888Z,23.20
2022-12-11T10:06:35.869Z,24.10
2022-12-11T10:07:35.851Z,23.90
2022-12-11T10:08:35.835Z,24.30
2022-12-11T10:09:35.819Z,22.60
2022-12-11T10:10:35.824Z,25.90
2022-12-11T10:11:35.791Z,22.80
2022-12-11T10:12:35.773Z,23.70
2022-12-11T10:13:35.758Z,23.70
2022-12-11T10:14:35.782Z,23.20
2022-12-11T10:15:35.768Z,24.70
2022-12-11T10:16:35.714Z,24.20
2022-12-11T10:17:35.694Z,24.20
2022-12-11T10:18:35.679Z,22.40
2022-12-11T10:19:35.663Z,23.90
2022-12-11T10:20:35.647Z,23.40
2022-12-11T10:21:35.631Z,24.40
2022-12-11T10:22:35.616Z,23.00
2022-12-11T10:23:35.624Z,28.50
2022-12-11T10:25:09.400Z,23.00
2022-12-11T10:25:35.572Z,25.40
2022-12-11T10:26:35.557Z,25.30
2022-12-11T10:27:35.537Z,24.60
2022-12-11T10:28:35.527Z,26.20
2022-12-11T10:29:35.513Z,26.00
2022-12-11T10:30:35.501Z,26.70
2022-12-11T10:31:35.555Z,28.70
2022-12-11T10:32:35.459Z,25.50
2022-12-11T10:33:35.469Z,23.00
2022-12-11T10:34:35.429Z,28.80
2022-12-11T10:35:35.413Z,32.30
2022-12-11T10:36:35.396Z,28.20
2022-12-11T10:37:35.381Z,24.10
2022-12-11T10:38:35.362Z,25.00
2022-12-11T10:39:35.349Z,23.20
2022-12-11T10:40:35.333Z,26.10
2022-12-11T10:41:35.320Z,23.50
2022-12-11T10:42:35.306Z,30.40
2022-12-11T10:43:35.288Z,24.80
2022-12-11T10:44:35.273Z,25.00
2022-12-11T10:45:35.258Z,24.60
2022-12-11T10:46:35.309Z,26.40
2022-12-11T10:47:35.222Z,40.10
2022-12-11T10:48:35.209Z,23.20
2022-12-11T10:49:35.195Z,22.70
2022-12-11T10:50:35.182Z,25.00
2022-12-11T10:51:35.167Z,24.70
2022-12-11T10:52:35.152Z,24.40
2022-12-11T10:53:35.140Z,24.70
2022-12-11T10:54:35.118Z,28.10
2022-12-11T10:55:35.098Z,24.10
2022-12-11T10:56:35.087Z,24.30
2022-12-11T10:57:35.074Z,27.20
2022-12-11T10:58:35.064Z,25.50
2022-12-11T10:59:35.038Z,23.90
2022-12-11T11:00:35.024Z,25.40
2022-12-11T11:01:35.050Z,22.00
2022-12-11T11:02:35.052Z,24.20
2022-12-11T11:03:34.981Z,41.20
2022-12-11T11:04:34.962Z,24.90
2022-12-11T11:05:34.948Z,26.60
2022-12-11T11:06:34.931Z,25.80
2022-12-11T11:07:34.920Z,26.60
2022-12-11T11:08:34.902Z,28.70
2022-12-11T11:09:34.884Z,27.70
2022-12-11T11:10:34.870Z,33.70
2022-12-11T11:11:34.860Z,27.80
2022-12-11T11:12:34.839Z,24.20
2022-12-11T11:13:34.822Z,24.60
2022-12-11T11:14:34.814Z,23.90
2022-12-11T11:15:34.792Z,23.80
2022-12-11T11:16:34.778Z,24.80
2022-12-11T11:17:36.212Z,33.70
2022-12-11T11:18:34.743Z,27.60
2022-12-11T11:19:34.733Z,46.70
2022-12-11T11:20:34.714Z,23.50
2022-12-11T11:21:34.700Z,22.40
2022-12-11T11:22:34.686Z,21.50
2022-12-11T11:23:35.961Z,23.70
2022-12-11T11:24:34.653Z,24.80
2022-12-11T11:25:34.640Z,20.80
2022-12-11T11:27:04.772Z,23.10
2022-12-11T11:27:34.611Z,35.80
2022-12-11T11:28:34.591Z,23.50
2022-12-11T11:29:34.578Z,21.70
2022-12-11T11:30:34.561Z,21.20
2022-12-11T11:31:34.606Z,21.60
2022-12-11T11:32:34.537Z,21.20
2022-12-11T11:33:34.514Z,21.00
2022-12-11T11:34:34.494Z,20.30
2022-12-11T11:35:34.486Z,20.50
2022-12-11T11:36:34.468Z,21.40
2022-12-11T11:37:34.456Z,18.60
2022-12-11T11:38:34.437Z,19.80
2022-12-11T11:39:34.421Z,20.10
2022-12-11T11:40:34.407Z,31.40
2022-12-11T11:41:34.391Z,28.00
2022-12-11T11:42:41.538Z,19.40
2022-12-11T11:44:27.538Z,18.70
2022-12-11T11:45:27.447Z,19.00
2022-12-11T11:47:20.909Z,21.30
2022-12-11T11:48:20.583Z,20.30
2022-12-11T11:50:13.476Z,21.40
2022-12-11T11:51:13.401Z,19.90
2022-12-11T11:53:17.389Z,22.80
2022-12-11T11:54:17.354Z,22.60
2022-12-11T11:55:22.129Z,21.80
2022-12-11T11:56:17.322Z,21.20
2022-12-11T11:57:17.301Z,21.30
2022-12-11T11:58:17.292Z,22.40
2022-12-11T11:59:17.417Z,19.20
2022-12-11T12:00:17.259Z,19.80
2022-12-11T12:01:17.242Z,20.90
2022-12-11T12:02:17.291Z,19.80
2022-12-11T12:03:17.212Z,21.60
2022-12-11T12:04:17.195Z,19.70
2022-12-11T12:05:17.180Z,20.50
2022-12-11T12:06:17.164Z,19.50
2022-12-11T12:07:17.159Z,19.10
2022-12-11T12:08:17.247Z,19.00
2022-12-11T12:09:17.211Z,19.60
2022-12-11T12:10:17.104Z,20.70
2022-12-11T12:11:17.092Z,20.90
2022-12-11T12:12:21.045Z,19.80
2022-12-11T12:13:47.718Z,21.50
2022-12-11T12:14:50.572Z,20.40
2022-12-11T12:15:17.032Z,20.70
2022-12-11T12:16:50.557Z,20.00
2022-12-11T12:17:17.067Z,19.40
2022-12-11T12:18:16.982Z,24.20
2022-12-11T12:19:16.966Z,19.60
2022-12-11T12:20:16.958Z,19.90
2022-12-11T12:21:16.938Z,19.50
2022-12-11T12:22:16.921Z,19.80
2022-12-11T12:23:16.904Z,21.80
2022-12-11T12:24:16.895Z,20.50
2022-12-11T12:25:16.874Z,21.90
2022-12-11T12:26:16.858Z,20.80
2022-12-11T12:27:49.911Z,21.50
2022-12-11T12:28:16.830Z,19.60
2022-12-11T12:29:16.816Z,19.90
2022-12-11T12:30:22.014Z,20.10
2022-12-11T12:31:16.851Z,21.30
2022-12-11T12:32:16.790Z,20.20
2022-12-11T12:33:16.755Z,19.90
2022-12-11T12:34:16.741Z,19.40
2022-12-11T12:35:16.722Z,20.80
2022-12-11T12:36:16.705Z,20.00
2022-12-11T12:37:16.692Z,19.50
2022-12-11T12:38:16.674Z,21.30
2022-12-11T12:39:16.666Z,19.00
2022-12-11T12:40:16.643Z,20.40
2022-12-11T12:41:16.752Z,20.80
2022-12-11T12:42:16.617Z,20.60
2022-12-11T12:43:16.592Z,20.80
2022-12-11T12:44:16.670Z,19.30
2022-12-11T12:45:16.567Z,20.40
2022-12-11T12:46:16.588Z,20.60
2022-12-11T12:47:16.535Z,25.50
2022-12-11T12:48:16.519Z,22.20
2022-12-11T12:49:16.506Z,21.90
2022-12-11T12:50:16.507Z,20.80
2022-12-11T12:51:16.479Z,21.70
2022-12-11T12:52:16.470Z,21.50
2022-12-11T12:53:16.444Z,19.10
2022-12-11T12:54:16.429Z,19.40
2022-12-11T12:55:16.414Z,19.30
2022-12-11T12:56:16.402Z,18.80